createdAt,value
2022-07-27T00:00:17.633Z,954.59
2022-07-27T00:01:17.683Z,954.56
2022-07-27T00:02:17.623Z,954.55
2022-07-27T00:03:17.614Z,954.58
2022-07-27T00:04:17.666Z,954.55
2022-07-27T00:05:17.602Z,954.57
2022-07-27T00:06:17.592Z,954.58
2022-07-27T00:07:17.591Z,954.58
2022-07-27T00:08:17.579Z,954.53
2022-07-27T00:09:17.573Z,954.55
2022-07-27T00:10:17.567Z,954.54
2022-07-27T00:11:17.559Z,954.56
2022-07-27T00:12:17.553Z,954.57
2022-07-27T00:13:17.547Z,954.58
2022-07-27T00:14:17.539Z,954.62
2022-07-27T00:15:17.534Z,954.61
2022-07-27T00:16:17.645Z,954.63
2022-07-27T00:17:17.520Z,954.65
2022-07-27T00:18:17.512Z,954.66
2022-07-27T00:19:17.513Z,954.66
2022-07-27T00:20:17.500Z,954.72
2022-07-27T00:21:17.494Z,954.71
2022-07-27T00:22:17.488Z,954.74
2022-07-27T00:23:17.485Z,954.71
2022-07-27T00:24:17.476Z,954.7
2022-07-27T00:25:17.469Z,954.69
2022-07-27T00:26:17.463Z,954.72
2022-07-27T00:27:17.454Z,954.73
2022-07-27T00:28:17.450Z,954.76
2022-07-27T00:29:17.439Z,954.71
2022-07-27T00:30:17.438Z,954.73
2022-07-27T00:31:17.485Z,954.74
2022-07-27T00:32:17.424Z,954.72
2022-07-27T00:33:17.688Z,954.69
2022-07-27T00:34:17.408Z,954.63
2022-07-27T00:35:17.399Z,954.65
2022-07-27T00:36:17.393Z,954.62
2022-07-27T00:37:17.386Z,954.56
2022-07-27T00:38:17.384Z,954.55
2022-07-27T00:39:17.375Z,954.55
2022-07-27T00:40:17.369Z,954.56
2022-07-27T00:41:17.358Z,954.57
2022-07-27T00:42:17.355Z,954.52
2022-07-27T00:43:17.346Z,954.5
2022-07-27T00:44:17.340Z,954.54
2022-07-27T00:45:17.332Z,954.45
2022-07-27T00:46:17.368Z,954.46
2022-07-27T00:47:17.319Z,954.41
2022-07-27T00:48:17.315Z,954.38
2022-07-27T00:49:17.520Z,954.34
2022-07-27T00:50:17.301Z,954.37
2022-07-27T00:51:17.295Z,954.38
2022-07-27T00:52:17.288Z,954.39
2022-07-27T00:53:17.282Z,954.38
2022-07-27T00:54:17.275Z,954.42
2022-07-27T00:55:17.264Z,954.46
2022-07-27T00:56:17.261Z,954.49
2022-07-27T00:57:17.254Z,954.54
2022-07-27T00:58:17.246Z,954.63
2022-07-27T00:59:17.240Z,954.57
2022-07-27T01:00:17.235Z,954.57
2022-07-27T01:01:17.346Z,954.59
2022-07-27T01:02:19.559Z,954.61
2022-07-27T01:03:17.272Z,954.61
2022-07-27T01:04:17.207Z,954.62
2022-07-27T01:05:17.200Z,954.64
2022-07-27T01:06:24.925Z,954.64
2022-07-27T01:07:17.187Z,954.63
2022-07-27T01:08:17.181Z,954.63
2022-07-27T01:09:17.176Z,954.66
2022-07-27T01:10:17.165Z,954.66
2022-07-27T01:11:17.161Z,954.66
2022-07-27T01:12:17.152Z,954.7
2022-07-27T01:13:17.147Z,954.66
2022-07-27T01:14:17.139Z,954.69
2022-07-27T01:15:17.136Z,954.73
2022-07-27T01:16:17.146Z,954.69
2022-07-27T01:17:17.120Z,954.7
2022-07-27T01:18:17.114Z,954.7
2022-07-27T01:19:17.107Z,954.71
2022-07-27T01:20:17.099Z,954.7
2022-07-27T01:21:17.093Z,954.71
2022-07-27T01:22:17.085Z,954.71
2022-07-27T01:23:17.081Z,954.68
2022-07-27T01:24:17.075Z,954.68
2022-07-27T01:25:17.069Z,954.69
2022-07-27T01:26:17.060Z,954.67
2022-07-27T01:27:17.066Z,954.64
2022-07-27T01:28:17.050Z,954.64
2022-07-27T01:29:17.041Z,954.62
2022-07-27T01:30:17.035Z,954.61
2022-07-27T01:31:17.074Z,954.64
2022-07-27T01:32:17.020Z,954.61
2022-07-27T01:33:17.016Z,954.59
2022-07-27T01:34:17.007Z,954.66
2022-07-27T01:35:17.003Z,954.64
2022-07-27T01:36:16.995Z,954.66
2022-07-27T01:37:16.990Z,954.65
2022-07-27T01:38:16.979Z,954.65
2022-07-27T01:39:16.973Z,954.65
2022-07-27T01:40:16.966Z,954.64
2022-07-27T01:41:16.958Z,954.61
2022-07-27T01:42:16.953Z,954.64
2022-07-27T01:43:16.948Z,954.65
2022-07-27T01:44:16.940Z,954.58
2022-07-27T01:45:16.935Z,954.58
2022-07-27T01:46:17.015Z,954.6
2022-07-27T01:47:16.919Z,954.56
2022-07-27T01:48:16.912Z,954.53
2022-07-27T01:49:17.244Z,954.55
2022-07-27T01:50:16.898Z,954.52
2022-07-27T01:51:16.893Z,954.47
2022-07-27T01:52:16.888Z,954.48
2022-07-27T01:53:16.879Z,954.47
2022-07-27T01:54:16.870Z,954.45
2022-07-27T01:55:16.864Z,954.48
2022-07-27T01:56:16.861Z,954.47
2022-07-27T01:57:16.853Z,954.5
2022-07-27T01:58:16.843Z,954.46
2022-07-27T01:59:17.243Z,954.48
2022-07-27T02:00:16.842Z,954.46
2022-07-27T02:01:16.865Z,954.45
2022-07-27T02:02:16.822Z,954.43
2022-07-27T02:03:16.812Z,954.41
2022-07-27T02:04:16.820Z,954.33
2022-07-27T02:05:16.899Z,954.32
2022-07-27T02:06:16.814Z,954.31
2022-07-27T02:07:16.787Z,954.33
2022-07-27T02:08:16.785Z,954.36
2022-07-27T02:09:16.773Z,954.34
2022-07-27T02:10:16.768Z,954.37
2022-07-27T02:11:16.759Z,954.32
2022-07-27T02:12:16.753Z,954.3
2022-07-27T02:13:22.667Z,954.31
2022-07-27T02:14:16.748Z,954.29
2022-07-27T02:15:16.732Z,954.24
2022-07-27T02:16:17.399Z,954.23
2022-07-27T02:17:16.720Z,954.24
2022-07-27T02:18:26.725Z,954.22
2022-07-27T02:19:16.892Z,954.28
2022-07-27T02:20:16.700Z,954.3
2022-07-27T02:21:16.705Z,954.37
2022-07-27T02:22:16.687Z,954.43
2022-07-27T02:23:16.679Z,954.45
2022-07-27T02:24:16.672Z,954.41
2022-07-27T02:25:16.664Z,954.42
2022-07-27T02:26:16.659Z,954.38
2022-07-27T02:27:16.652Z,954.4
2022-07-27T02:28:16.646Z,954.35
2022-07-27T02:29:16.640Z,954.37
2022-07-27T02:30:17.706Z,954.36
2022-07-27T02:31:16.624Z,954.38
2022-07-27T02:32:16.620Z,954.37
2022-07-27T02:33:16.629Z,954.35
2022-07-27T02:34:16.605Z,954.36
2022-07-27T02:35:19.332Z,954.39
2022-07-27T02:36:16.593Z,954.32
2022-07-27T02:37:16.583Z,954.38
2022-07-27T02:38:16.579Z,954.34
2022-07-27T02:39:16.574Z,954.34
2022-07-27T02:40:16.569Z,954.34
2022-07-27T02:41:16.556Z,954.31
2022-07-27T02:42:16.553Z,954.32
2022-07-27T02:43:16.544Z,954.33
2022-07-27T02:44:16.539Z,954.33
2022-07-27T02:45:16.531Z,954.33
2022-07-27T02:46:16.549Z,954.39
2022-07-27T02:47:16.516Z,954.39
2022-07-27T02:48:16.510Z,954.4
2022-07-27T02:49:16.715Z,954.4
2022-07-27T02:50:16.499Z,954.41
2022-07-27T02:51:16.489Z,954.43
2022-07-27T02:52:16.486Z,954.4
2022-07-27T02:53:16.483Z,954.38
2022-07-27T02:54:16.469Z,954.4
2022-07-27T02:55:16.462Z,954.43
2022-07-27T02:56:16.454Z,954.41
2022-07-27T02:57:16.451Z,954.41
2022-07-27T02:58:16.447Z,954.42
2022-07-27T02:59:16.438Z,954.44
2022-07-27T03:00:16.429Z,954.45
2022-07-27T03:01:16.461Z,954.47
2022-07-27T03:02:16.414Z,954.43
2022-07-27T03:03:16.408Z,954.46
2022-07-27T03:04:16.448Z,954.42
2022-07-27T03:05:16.395Z,954.39
2022-07-27T03:06:16.386Z,954.42
2022-07-27T03:07:16.380Z,954.44
2022-07-27T03:08:16.372Z,954.42
2022-07-27T03:09:16.367Z,954.44
2022-07-27T03:10:16.360Z,954.44
2022-07-27T03:11:16.354Z,954.42
2022-07-27T03:12:16.344Z,954.43
2022-07-27T03:13:16.340Z,954.43
2022-07-27T03:14:16.331Z,954.46
2022-07-27T03:15:16.324Z,954.41
2022-07-27T03:16:16.331Z,954.42
2022-07-27T03:17:16.313Z,954.4
2022-07-27T03:18:16.300Z,954.42
2022-07-27T03:19:16.295Z,954.39
2022-07-27T03:20:16.289Z,954.37
2022-07-27T03:21:16.280Z,954.36
2022-07-27T03:22:16.273Z,954.38
2022-07-27T03:23:16.269Z,954.39
2022-07-27T03:24:16.261Z,954.35
2022-07-27T03:25:16.255Z,954.38
2022-07-27T03:26:16.246Z,954.39
2022-07-27T03:27:16.241Z,954.35
2022-07-27T03:28:16.233Z,954.36
2022-07-27T03:29:16.226Z,954.36
2022-07-27T03:30:16.218Z,954.32
2022-07-27T03:31:16.280Z,954.37
2022-07-27T03:32:16.203Z,954.39
2022-07-27T03:50:08.881Z,954.39
2022-07-27T03:51:08.862Z,954.44
2022-07-27T03:52:09.666Z,954.43
2022-07-27T03:53:08.839Z,954.45
2022-07-27T03:54:08.851Z,954.44
2022-07-27T03:55:08.822Z,954.45
2022-07-27T03:56:08.815Z,954.45
2022-07-27T03:57:08.801Z,954.43
2022-07-27T03:58:08.796Z,954.5
2022-07-27T03:59:09.144Z,954.47
2022-07-27T04:00:08.774Z,954.46
2022-07-27T04:01:08.783Z,954.42
2022-07-27T04:02:08.813Z,954.42
2022-07-27T04:03:08.747Z,954.46
2022-07-27T04:04:08.743Z,954.4
2022-07-27T04:05:08.734Z,954.4
2022-07-27T04:06:08.724Z,954.38
2022-07-27T04:07:08.714Z,954.36
2022-07-27T04:08:08.711Z,954.34
2022-07-27T04:09:09.175Z,954.37
2022-07-27T04:10:08.689Z,954.36
2022-07-27T04:11:08.681Z,954.39
2022-07-27T04:12:08.672Z,954.39
2022-07-27T04:13:08.665Z,954.4
2022-07-27T04:14:08.658Z,954.5
2022-07-27T04:15:08.657Z,954.51
2022-07-27T04:16:09.075Z,954.55
2022-07-27T04:17:08.706Z,954.56
2022-07-27T04:18:08.627Z,954.56
2022-07-27T04:19:08.811Z,954.6
2022-07-27T04:20:08.610Z,954.62
2022-07-27T04:21:08.602Z,954.62
2022-07-27T04:22:08.594Z,954.64
2022-07-27T04:23:08.586Z,954.63
2022-07-27T04:24:08.580Z,954.62
2022-07-27T04:25:08.571Z,954.65
2022-07-27T04:26:08.564Z,954.65
2022-07-27T04:27:08.556Z,954.66
2022-07-27T04:28:08.557Z,954.66
2022-07-27T04:29:08.766Z,954.68
2022-07-27T04:30:09.756Z,954.72
2022-07-27T04:31:08.601Z,954.7
2022-07-27T04:32:08.521Z,954.7
2022-07-27T04:33:08.511Z,954.75
2022-07-27T04:34:08.503Z,954.69
2022-07-27T04:35:08.494Z,954.71
2022-07-27T04:36:08.488Z,954.71
2022-07-27T04:37:08.480Z,954.68
2022-07-27T04:38:08.474Z,954.67
2022-07-27T04:39:08.692Z,954.66
2022-07-27T04:40:08.468Z,954.65
2022-07-27T04:41:08.452Z,954.64
2022-07-27T04:42:08.457Z,954.62
2022-07-27T04:43:08.437Z,954.61
2022-07-27T04:44:08.426Z,954.61
2022-07-27T04:45:08.422Z,954.61
2022-07-27T04:46:11.859Z,954.59
2022-07-27T04:47:08.408Z,954.61
2022-07-27T04:48:08.399Z,954.62
2022-07-27T04:49:08.544Z,954.6
2022-07-27T04:50:08.484Z,954.6
2022-07-27T04:51:08.379Z,954.61
2022-07-27T04:52:08.368Z,954.6
2022-07-27T04:53:08.363Z,954.57
2022-07-27T04:54:08.354Z,954.61
2022-07-27T04:55:08.348Z,954.65
2022-07-27T04:56:08.340Z,954.71
2022-07-27T04:57:08.334Z,954.73
2022-07-27T04:58:08.329Z,954.76
2022-07-27T04:59:08.533Z,954.79
2022-07-27T05:00:08.308Z,954.77
2022-07-27T05:01:08.371Z,954.86
2022-07-27T05:02:08.384Z,954.82
2022-07-27T05:03:08.289Z,954.85
2022-07-27T05:04:08.356Z,954.85
2022-07-27T05:05:08.274Z,954.87
2022-07-27T05:06:08.265Z,954.85
2022-07-27T05:07:08.260Z,954.77
2022-07-27T05:08:08.252Z,954.79
2022-07-27T05:09:08.327Z,954.81
2022-07-27T05:10:08.235Z,954.8
2022-07-27T05:11:08.229Z,954.83
2022-07-27T05:12:08.219Z,954.78
2022-07-27T05:13:08.226Z,954.83
2022-07-27T05:14:08.204Z,954.85
2022-07-27T05:15:08.199Z,954.84
2022-07-27T05:16:08.230Z,954.87
2022-07-27T05:17:08.184Z,954.84
2022-07-27T05:18:08.175Z,954.85
2022-07-27T05:19:08.262Z,954.83
2022-07-27T05:20:08.159Z,954.86
2022-07-27T05:21:08.155Z,954.84
2022-07-27T05:22:08.178Z,954.83
2022-07-27T05:23:08.144Z,954.76
2022-07-27T05:24:08.146Z,954.77
2022-07-27T05:25:08.122Z,954.73
2022-07-27T05:26:08.115Z,954.72
2022-07-27T05:27:08.109Z,954.73
2022-07-27T05:28:08.099Z,954.73
2022-07-27T05:29:08.254Z,954.75
2022-07-27T05:30:08.083Z,954.8
2022-07-27T05:31:08.077Z,954.78
2022-07-27T05:32:08.162Z,954.8
2022-07-27T05:33:08.061Z,954.78
2022-07-27T05:34:08.055Z,954.84
2022-07-27T05:35:08.043Z,954.82
2022-07-27T05:36:08.038Z,954.84
2022-07-27T05:37:08.031Z,954.85
2022-07-27T05:38:08.023Z,954.83
2022-07-27T05:39:11.781Z,954.84
2022-07-27T05:40:08.008Z,954.85
2022-07-27T05:41:07.997Z,954.92
2022-07-27T05:42:07.994Z,954.9
2022-07-27T05:43:07.982Z,954.95
2022-07-27T05:44:07.976Z,954.98
2022-07-27T05:45:07.969Z,955
2022-07-27T05:46:08.099Z,955.03
2022-07-27T05:47:07.951Z,955
2022-07-27T05:48:07.946Z,954.97
2022-07-27T05:49:07.982Z,955.01
2022-07-27T05:50:07.930Z,955
2022-07-27T05:51:07.925Z,955.1
2022-07-27T05:52:07.916Z,955.13
2022-07-27T05:53:07.907Z,955.17
2022-07-27T05:54:07.901Z,955.19
2022-07-27T05:55:07.892Z,955.17
2022-07-27T05:56:07.893Z,955.13
2022-07-27T05:57:07.876Z,955.19
2022-07-27T05:58:07.870Z,955.18
2022-07-27T05:59:07.875Z,955.14
2022-07-27T06:00:07.857Z,955.18
2022-07-27T06:01:07.892Z,955.19
2022-07-27T06:02:07.840Z,955.19
2022-07-27T06:03:07.853Z,955.17
2022-07-27T06:04:07.825Z,955.2
2022-07-27T06:05:11.894Z,955.2
2022-07-27T06:06:07.810Z,955.23
2022-07-27T06:07:07.803Z,955.23
2022-07-27T06:08:07.796Z,955.27
2022-07-27T06:09:07.828Z,955.27
2022-07-27T06:10:08.760Z,955.29
2022-07-27T06:11:07.772Z,955.31
2022-07-27T06:12:07.765Z,955.34
2022-07-27T06:13:07.756Z,955.34
2022-07-27T06:14:07.751Z,955.3
2022-07-27T06:15:07.740Z,955.33
2022-07-27T06:16:07.810Z,955.34
2022-07-27T06:17:07.736Z,955.36
2022-07-27T06:18:07.720Z,955.35
2022-07-27T06:19:07.712Z,955.38
2022-07-27T06:20:07.704Z,955.43
2022-07-27T06:21:07.697Z,955.38
2022-07-27T06:22:07.689Z,955.39
2022-07-27T06:23:08.357Z,955.36
2022-07-27T06:24:07.676Z,955.39
2022-07-27T06:25:07.666Z,955.37
2022-07-27T06:26:07.657Z,955.37
2022-07-27T06:27:07.649Z,955.37
2022-07-27T06:28:07.640Z,955.43
2022-07-27T06:29:09.848Z,955.4
2022-07-27T06:30:07.624Z,955.37
2022-07-27T06:31:07.676Z,955.4
2022-07-27T06:32:07.923Z,955.4
2022-07-27T06:33:07.604Z,955.36
2022-07-27T06:34:11.497Z,955.39
2022-07-27T06:35:07.586Z,955.41
2022-07-27T06:36:07.576Z,955.38
2022-07-27T06:37:07.570Z,955.41
2022-07-27T06:38:07.569Z,955.37
2022-07-27T06:39:07.554Z,955.37
2022-07-27T06:40:07.543Z,955.4
2022-07-27T06:41:07.539Z,955.41
2022-07-27T06:42:07.528Z,955.38
2022-07-27T06:43:07.521Z,955.38
2022-07-27T06:44:07.511Z,955.33
2022-07-27T06:45:07.505Z,955.34
2022-07-27T06:46:07.512Z,955.29
2022-07-27T06:47:07.537Z,955.32
2022-07-27T06:48:07.480Z,955.29
2022-07-27T06:49:07.500Z,955.31
2022-07-27T06:50:07.466Z,955.36
2022-07-27T06:51:07.456Z,955.36
2022-07-27T06:52:07.446Z,955.4
2022-07-27T06:53:07.441Z,955.4
2022-07-27T06:54:07.429Z,955.42
2022-07-27T06:55:07.424Z,955.4
2022-07-27T06:56:07.412Z,955.43
2022-07-27T06:57:07.407Z,955.36
2022-07-27T06:58:07.397Z,955.5
2022-07-27T06:59:07.390Z,955.47
2022-07-27T07:00:07.387Z,955.46
2022-07-27T07:01:07.415Z,955.51
2022-07-27T07:02:07.365Z,955.53
2022-07-27T07:03:07.358Z,955.53
2022-07-27T07:04:07.413Z,955.55
2022-07-27T07:05:07.342Z,955.6
2022-07-27T07:06:07.336Z,955.57
2022-07-27T07:07:07.564Z,955.63
2022-07-27T07:08:07.316Z,955.64
2022-07-27T07:09:07.309Z,955.67
2022-07-27T07:10:07.298Z,955.65
2022-07-27T07:11:07.292Z,955.68
2022-07-27T07:12:07.282Z,955.67
2022-07-27T07:13:07.275Z,955.64
2022-07-27T07:14:07.265Z,955.63
2022-07-27T07:15:07.257Z,955.61
2022-07-27T07:16:07.300Z,955.66
2022-07-27T07:17:07.241Z,955.64
2022-07-27T07:18:07.235Z,955.61
2022-07-27T07:19:07.224Z,955.65
2022-07-27T07:20:07.216Z,955.64
2022-07-27T07:21:07.207Z,955.66
2022-07-27T07:22:07.201Z,955.63
2022-07-27T07:23:07.192Z,955.67
2022-07-27T07:24:07.186Z,955.63
2022-07-27T07:25:07.173Z,955.66
2022-07-27T07:26:07.169Z,955.65
2022-07-27T07:27:07.164Z,955.64
2022-07-27T07:28:07.166Z,955.63
2022-07-27T07:29:07.141Z,955.59
2022-07-27T07:30:07.133Z,955.58
2022-07-27T07:31:07.180Z,955.59
2022-07-27T07:32:07.120Z,955.53
2022-07-27T07:33:07.111Z,955.55
2022-07-27T07:34:07.103Z,955.51
2022-07-27T07:35:07.092Z,955.54
2022-07-27T07:36:13.033Z,955.54
2022-07-27T07:37:07.077Z,955.51
2022-07-27T07:38:07.068Z,955.53
2022-07-27T07:39:07.062Z,955.55
2022-07-27T07:41:07.045Z,955.58
2022-07-27T07:42:10.577Z,955.57
2022-07-27T07:43:07.043Z,955.58
2022-07-27T07:44:07.022Z,955.55
2022-07-27T07:45:07.011Z,955.54
2022-07-27T07:46:07.346Z,955.51
2022-07-27T07:47:07.067Z,955.51
2022-07-27T07:48:06.990Z,955.51
2022-07-27T07:49:07.100Z,955.47
2022-07-27T07:50:06.972Z,955.49
2022-07-27T07:51:06.966Z,955.49
2022-07-27T07:52:06.956Z,955.5
2022-07-27T07:53:06.948Z,955.54
2022-07-27T07:54:06.943Z,955.61
2022-07-27T07:55:06.931Z,955.59
2022-07-27T07:56:06.927Z,955.62
2022-07-27T07:57:06.915Z,955.61
2022-07-27T07:58:06.909Z,955.65
2022-07-27T07:59:06.902Z,955.65
2022-07-27T08:00:06.892Z,955.7
2022-07-27T08:01:06.884Z,955.72
2022-07-27T08:02:06.988Z,955.74
2022-07-27T08:03:06.912Z,955.71
2022-07-27T08:04:06.863Z,955.74
2022-07-27T08:05:06.852Z,955.74
2022-07-27T08:06:06.845Z,955.8
2022-07-27T08:07:06.839Z,955.81
2022-07-27T08:08:06.833Z,955.74
2022-07-27T08:09:06.824Z,955.76
2022-07-27T08:10:06.815Z,955.79
2022-07-27T08:11:06.813Z,955.79
2022-07-27T08:12:06.799Z,955.8
2022-07-27T08:13:06.792Z,955.81
2022-07-27T08:14:06.793Z,955.88
2022-07-27T08:15:06.779Z,955.88
2022-07-27T08:16:06.799Z,955.92
2022-07-27T08:17:06.763Z,955.9
2022-07-27T08:18:06.755Z,955.92
2022-07-27T08:19:08.816Z,955.86
2022-07-27T08:20:06.739Z,955.9
2022-07-27T08:21:06.735Z,955.87
2022-07-27T08:22:06.727Z,955.91
2022-07-27T08:23:06.722Z,955.94
2022-07-27T08:24:06.712Z,955.93
2022-07-27T08:25:06.706Z,955.95
2022-07-27T08:26:08.074Z,955.97
2022-07-27T08:27:06.690Z,956
2022-07-27T08:28:07.524Z,956.05
2022-07-27T08:29:11.157Z,956.01
2022-07-27T08:30:06.669Z,956.06
2022-07-27T08:31:13.831Z,956.06
2022-07-27T08:32:06.709Z,956.08
2022-07-27T08:33:06.649Z,956.06
2022-07-27T08:34:06.641Z,956.11
2022-07-27T08:35:06.636Z,956.05
2022-07-27T08:36:06.631Z,956.11
2022-07-27T08:37:06.622Z,956.08
2022-07-27T08:38:06.612Z,956.09
2022-07-27T08:39:06.607Z,956.09
2022-07-27T08:40:47.294Z,956.04
2022-07-27T08:41:46.682Z,956.07
2022-07-27T08:42:46.654Z,956.06
2022-07-27T08:43:46.649Z,956.08
2022-07-27T08:44:46.641Z,956.05
2022-07-27T08:45:46.635Z,956.08
2022-07-27T08:46:46.718Z,956.06
2022-07-27T08:47:46.620Z,956.05
2022-07-27T08:48:46.668Z,956.08
2022-07-27T08:49:49.445Z,956.06
2022-07-27T08:50:46.597Z,956.1
2022-07-27T08:51:47.261Z,956.08
2022-07-27T08:52:46.586Z,956.08
2022-07-27T08:53:52.855Z,956.08
2022-07-27T08:54:46.570Z,956.1
2022-07-27T08:55:46.570Z,956.1
2022-07-27T08:56:46.557Z,956.1
2022-07-27T08:57:46.553Z,956.11
2022-07-27T08:58:46.548Z,956.12
2022-07-27T08:59:46.539Z,956.09
2022-07-27T09:00:46.532Z,956.14
2022-07-27T09:01:46.622Z,956.09
2022-07-27T09:02:46.626Z,956.1
2022-07-27T09:03:46.556Z,956.09
2022-07-27T09:04:46.503Z,956.1
2022-07-27T09:05:46.500Z,956.09
2022-07-27T09:06:52.838Z,956.07
2022-07-27T09:07:46.486Z,956.07
2022-07-27T09:08:49.976Z,956.07
2022-07-27T09:09:46.474Z,956.04
2022-07-27T09:10:46.463Z,956.05
2022-07-27T09:11:46.471Z,956.03
2022-07-27T09:12:46.454Z,956.05
2022-07-27T09:13:46.447Z,956
2022-07-27T09:14:49.831Z,956.07
2022-07-27T09:16:12.747Z,956.05
2022-07-27T09:17:46.316Z,956.07
2022-07-27T09:18:04.494Z,956.06
2022-07-27T09:19:04.420Z,956.08
2022-07-27T09:20:04.411Z,956.1
2022-07-27T09:21:04.407Z,956.13
2022-07-27T09:22:04.399Z,956.1
2022-07-27T09:23:04.394Z,956.08
2022-07-27T09:24:09.477Z,956.13
2022-07-27T09:25:04.382Z,956.14
2022-07-27T09:26:09.247Z,956.09
2022-07-27T09:27:04.384Z,956.14
2022-07-27T09:28:04.359Z,956.13
2022-07-27T09:29:04.354Z,956.13
2022-07-27T09:30:04.349Z,956.16
2022-07-27T09:31:04.360Z,956.14
2022-07-27T09:32:04.331Z,956.16
2022-07-27T09:33:04.333Z,956.19
2022-07-27T09:34:04.598Z,956.21
2022-07-27T09:35:04.594Z,956.19
2022-07-27T09:36:04.586Z,956.18
2022-07-27T09:37:05.491Z,956.2
2022-07-27T09:38:04.623Z,956.18
2022-07-27T09:39:04.568Z,956.19
2022-07-27T09:40:04.571Z,956.2
2022-07-27T09:41:04.556Z,956.17
2022-07-27T09:42:04.646Z,956.16
2022-07-27T09:44:31.574Z,956.16
2022-07-27T09:45:32.499Z,956.19
2022-07-27T09:46:28.564Z,956.15
2022-07-27T09:47:28.532Z,956.11
2022-07-27T09:48:28.523Z,956.14
2022-07-27T09:49:28.514Z,956.19
2022-07-27T09:50:32.387Z,956.15
2022-07-27T09:52:28.494Z,956.16
2022-07-27T09:53:42.093Z,956.12
2022-07-27T09:54:28.487Z,956.16
2022-07-27T09:55:28.479Z,956.15
2022-07-27T09:56:28.471Z,956.16
2022-07-27T09:57:28.469Z,956.13
2022-07-27T09:58:28.461Z,956.15
2022-07-27T09:59:28.456Z,956.15
2022-07-27T10:00:28.449Z,956.15
2022-07-27T10:01:28.471Z,956.13
2022-07-27T10:02:28.502Z,956.18
2022-07-27T10:03:28.435Z,956.11
2022-07-27T10:04:28.498Z,956.12
2022-07-27T10:05:28.422Z,956.11
2022-07-27T10:06:28.416Z,956.13
2022-07-27T10:07:28.412Z,956.1
2022-07-27T10:08:28.406Z,956.1
2022-07-27T10:09:28.405Z,956.09
2022-07-27T10:10:28.396Z,956.09
2022-07-27T10:11:28.392Z,956.06
2022-07-27T10:12:28.384Z,956.09
2022-07-27T10:13:28.383Z,956.07
2022-07-27T10:14:28.374Z,956.09
2022-07-27T10:15:28.426Z,956.1
2022-07-27T10:16:28.461Z,956.1
2022-07-27T10:17:28.364Z,956.09
2022-07-27T10:18:28.357Z,956.06
2022-07-27T10:19:28.353Z,956.08
2022-07-27T10:20:28.346Z,956.07
2022-07-27T10:21:28.344Z,956.04
2022-07-27T10:22:28.338Z,956.02
2022-07-27T10:23:28.333Z,956.01
2022-07-27T10:24:28.328Z,956.02
2022-07-27T10:25:30.307Z,956.03
2022-07-27T10:26:28.319Z,956.04
2022-07-27T10:27:29.353Z,956.04
2022-07-27T10:28:29.338Z,956.06
2022-07-27T10:29:29.335Z,956.01
2022-07-27T10:30:29.328Z,956.02
2022-07-27T10:31:29.495Z,956.01
2022-07-27T10:32:29.320Z,955.96
2022-07-27T10:33:29.317Z,956
2022-07-27T10:34:29.319Z,955.98
2022-07-27T10:35:29.310Z,955.96
2022-07-27T10:36:29.303Z,956.01
2022-07-27T10:37:29.298Z,955.99
2022-07-27T10:38:29.293Z,955.98
2022-07-27T10:39:29.292Z,956.01
2022-07-27T10:40:29.285Z,956.04
2022-07-27T10:41:29.283Z,956.02
2022-07-27T10:42:29.276Z,956.05
2022-07-27T10:43:29.270Z,956.02
2022-07-27T10:44:29.268Z,956
2022-07-27T10:45:29.263Z,956.03
2022-07-27T10:46:29.295Z,956.02
2022-07-27T10:47:29.254Z,956
2022-07-27T10:48:29.251Z,955.99
2022-07-27T10:49:29.310Z,956.03
2022-07-27T10:50:29.243Z,956.07
2022-07-27T10:51:29.237Z,956.05
2022-07-27T10:52:29.234Z,956.04
2022-07-27T10:53:29.228Z,956.02
2022-07-27T10:54:29.822Z,956.02
2022-07-27T10:55:29.217Z,956.01
2022-07-27T10:56:29.216Z,955.99
2022-07-27T10:57:29.209Z,956
2022-07-27T10:58:29.205Z,956.04
2022-07-27T10:59:39.889Z,956.05
2022-07-27T11:00:29.196Z,956.05
2022-07-27T11:01:29.294Z,956.02
2022-07-27T11:02:29.190Z,956.01
2022-07-27T11:03:29.194Z,956.01
2022-07-27T11:04:29.258Z,956.03
2022-07-27T11:07:43.959Z,956.03
2022-07-27T11:10:05.491Z,956.06
2022-07-27T11:11:04.953Z,956.06
2022-07-27T11:12:04.946Z,956.01
2022-07-27T11:13:05.646Z,956
2022-07-27T11:14:04.938Z,956.03
2022-07-27T11:15:04.935Z,956.04
2022-07-27T11:18:05.271Z,956.04
2022-07-27T11:19:04.824Z,956.06
2022-07-27T11:20:04.766Z,956.07
2022-07-27T11:21:05.544Z,956.03
2022-07-27T11:22:06.760Z,956.01
2022-07-27T11:23:53.881Z,955.96
2022-07-27T11:24:53.877Z,956.02
2022-07-27T11:25:53.874Z,955.94
2022-07-27T11:26:53.885Z,956.02
2022-07-27T11:27:53.870Z,955.98
2022-07-27T11:28:53.865Z,955.98
2022-07-27T11:29:53.859Z,955.99
2022-07-27T11:30:53.899Z,955.97
2022-07-27T11:31:56.926Z,955.98
2022-07-27T11:32:53.897Z,955.97
2022-07-27T11:33:53.842Z,955.91
2022-07-27T11:34:53.843Z,955.99
2022-07-27T11:35:53.834Z,955.92
2022-07-27T11:36:53.834Z,955.89
2022-07-27T11:37:53.831Z,955.93
2022-07-27T11:38:53.825Z,955.91
2022-07-27T11:40:00.164Z,955.89
2022-07-27T11:42:18.829Z,955.85
2022-07-27T11:43:14.531Z,955.84
2022-07-27T11:44:13.366Z,955.84
2022-07-27T11:45:13.120Z,955.86
2022-07-27T11:46:13.226Z,955.88
2022-07-27T11:47:13.111Z,955.83
2022-07-27T11:48:13.104Z,955.83
2022-07-27T11:49:13.141Z,955.87
2022-07-27T11:50:13.139Z,955.85
2022-07-27T11:51:13.166Z,955.84
2022-07-27T11:52:13.088Z,955.86
2022-07-27T11:53:13.088Z,955.83
2022-07-27T11:54:13.089Z,955.84
2022-07-27T11:55:13.546Z,955.87
2022-07-27T11:56:13.074Z,955.84
2022-07-27T11:57:13.072Z,955.78
2022-07-27T11:58:13.069Z,955.78
2022-07-27T11:59:13.827Z,955.77
2022-07-27T12:00:13.063Z,955.79
2022-07-27T12:01:13.077Z,955.74
2022-07-27T12:02:13.090Z,955.75
2022-07-27T12:03:13.051Z,955.75
2022-07-27T12:04:13.057Z,955.73
2022-07-27T12:05:13.066Z,955.72
2022-07-27T12:06:13.039Z,955.7
2022-07-27T12:07:13.634Z,955.74
2022-07-27T12:08:13.030Z,955.77
2022-07-27T12:09:13.439Z,955.77
2022-07-27T12:10:13.023Z,955.78
2022-07-27T12:11:13.022Z,955.81
2022-07-27T12:12:13.018Z,955.81
2022-07-27T12:13:13.016Z,955.82
2022-07-27T12:14:13.011Z,955.81
2022-07-27T12:15:35.167Z,955.77
2022-07-27T12:16:16.913Z,955.77
2022-07-27T12:17:13.032Z,955.79
2022-07-27T12:18:12.998Z,955.78
2022-07-27T12:19:13.371Z,955.82
2022-07-27T12:20:12.990Z,955.74
2022-07-27T12:21:12.988Z,955.75
2022-07-27T12:22:12.984Z,955.76
2022-07-27T12:23:12.981Z,955.73
2022-07-27T12:24:12.977Z,955.76
2022-07-27T12:25:16.162Z,955.74
2022-07-27T12:26:12.971Z,955.75
2022-07-27T12:27:12.971Z,955.76
2022-07-27T12:28:13.000Z,955.79
2022-07-27T12:29:13.357Z,955.78
2022-07-27T12:30:12.961Z,955.82
2022-07-27T12:31:13.070Z,955.78
2022-07-27T12:32:12.955Z,955.82
2022-07-27T12:33:12.950Z,955.82
2022-07-27T12:34:12.950Z,955.75
2022-07-27T12:35:12.945Z,955.8
2022-07-27T12:36:12.942Z,955.82
2022-07-27T12:37:12.936Z,955.79
2022-07-27T12:38:12.936Z,955.83
2022-07-27T12:39:13.230Z,955.82
2022-07-27T12:40:12.932Z,955.77
2022-07-27T12:41:12.928Z,955.8
2022-07-27T12:42:12.924Z,955.8
2022-07-27T12:43:12.919Z,955.76
2022-07-27T12:44:12.917Z,955.74
2022-07-27T12:45:12.913Z,955.7
2022-07-27T12:46:13.166Z,955.69
2022-07-27T12:47:12.908Z,955.69
2022-07-27T12:48:12.905Z,955.7
2022-07-27T12:49:13.224Z,955.71
2022-07-27T12:50:12.900Z,955.7
2022-07-27T12:51:12.896Z,955.78
2022-07-27T12:52:12.896Z,955.76
2022-07-27T12:53:12.891Z,955.71
2022-07-27T12:54:12.888Z,955.7
2022-07-27T12:55:15.621Z,955.74
2022-07-27T12:56:12.889Z,955.72
2022-07-27T12:57:12.882Z,955.71
2022-07-27T12:58:12.888Z,955.72
2022-07-27T12:59:13.200Z,955.69
2022-07-27T13:00:13.430Z,955.69